Terminal Aerodrome Forecast
Issued by NWS

Home | Current Version | Previous Version | Text Only | Print | Product List | Glossary On
Versions: 1 2 3 4 5 6 7 8 9 10 11 12 13 14 15
000
FTUS45 KTFX 270520
TAFCTB
TAF
KCTB 270520Z 2706/2806 23006KT P6SM SCT040 SCT150
     FM271000 33006KT P6SM BKN120 PROB30 2721/2802 -TSRA BKN060CB=

USA.gov is the U.S. government's official web portal to all federal, state and local government web resources and services.